Time;durP1;ratioP1;P1;durP2;ratioP2;P2;SDS_P1;SDS_P2;PMS_P1;PMS_P2;Temp;Humidity;BMP_temperature;BMP_pressure;BME280_temperature;BME280_humidity;BME280_pressure;Samples;Min_cycle;Max_cycle;Signal;HPM_P1;HPM_P2
2022/06/09 00:00:27;;;;;;;36.63;6.90;;;15.20;99.90;;;;;;5114379;28;20020;-70
2022/06/09 00:02:57;;;;;;;38.67;7.05;;;15.00;99.90;;;;;;5113978;28;20073;-67
2022/06/09 00:05:25;;;;;;;31.98;5.40;;;15.00;99.90;;;;;;5109685;28;20028;-68
2022/06/09 00:07:55;;;;;;;29.73;5.55;;;14.90;99.90;;;;;;5113559;28;20035;-70
2022/06/09 00:10:31;;;;;;;35.15;6.25;;;15.00;99.90;;;;;;5114160;28;20463;-67
2022/06/09 00:12:57;;;;;;;37.17;5.95;;;15.20;99.90;;;;;;5114197;28;20065;-69
2022/06/09 00:15:23;;;;;;;34.20;5.93;;;15.10;99.90;;;;;;5114271;28;20012;-67
2022/06/09 00:17:49;;;;;;;32.10;6.30;;;15.20;99.90;;;;;;5113948;28;20357;-68
2022/06/09 00:20:16;;;;;;;36.70;6.38;;;15.30;99.90;;;;;;5113956;28;20032;-69
2022/06/09 00:22:42;;;;;;;41.67;6.72;;;15.30;99.90;;;;;;5113726;28;20026;-69
2022/06/09 00:25:09;;;;;;;28.30;5.60;;;15.20;99.90;;;;;;5113952;28;20387;-67
2022/06/09 00:27:35;;;;;;;34.67;7.28;;;15.20;99.90;;;;;;5113636;28;20131;-68
2022/06/09 00:30:03;;;;;;;33.03;5.75;;;15.00;99.90;;;;;;5112622;28;20523;-67
2022/06/09 00:32:29;;;;;;;28.23;5.38;;;15.10;99.90;;;;;;5113710;28;20093;-69
2022/06/09 00:34:55;;;;;;;37.75;6.22;;;15.20;99.90;;;;;;5113905;28;20027;-67
2022/06/09 00:37:21;;;;;;;40.58;5.45;;;15.10;99.90;;;;;;5113758;28;20080;-70
2022/06/09 00:39:46;;;;;;;25.38;5.13;;;15.10;99.90;;;;;;5113707;28;20034;-69
2022/06/09 00:42:12;;;;;;;27.85;5.38;;;15.10;99.90;;;;;;5107038;28;20027;-70
2022/06/09 00:44:39;;;;;;;32.10;5.78;;;15.00;99.90;;;;;;5106106;28;20038;-69
2022/06/09 00:47:21;;;;;;;33.90;6.57;;;15.00;99.90;;;;;;5106846;28;20027;-67
2022/06/09 00:49:55;;;;;;;41.28;7.75;;;15.00;99.90;;;;;;5113240;28;20464;-68
2022/06/09 00:52:23;;;;;;;40.75;7.13;;;14.50;99.90;;;;;;5113753;28;20106;-68
2022/06/09 00:54:57;;;;;;;29.10;5.85;;;14.70;99.90;;;;;;5113404;28;20029;-68
2022/06/09 00:57:36;;;;;;;42.25;6.63;;;14.70;99.90;;;;;;5113185;28;20015;-68
2022/06/09 01:00:12;;;;;;;30.33;6.38;;;14.60;99.90;;;;;;5113370;28;20036;-69
2022/06/09 01:02:41;;;;;;;41.83;6.25;;;14.70;99.90;;;;;;5113603;28;20024;-68
2022/06/09 01:05:07;;;;;;;38.15;6.47;;;14.80;99.90;;;;;;5106231;28;20040;-68
2022/06/09 01:07:41;;;;;;;34.90;6.40;;;14.60;99.90;;;;;;5112799;28;20396;-69
2022/06/09 01:10:07;;;;;;;29.80;5.72;;;14.60;99.90;;;;;;5113292;28;20031;-67
2022/06/09 01:12:35;;;;;;;38.75;8.15;;;14.40;99.90;;;;;;5113313;28;20016;-68
2022/06/09 01:15:05;;;;;;;41.60;6.90;;;14.30;99.90;;;;;;5113422;28;20032;-68
2022/06/09 01:17:31;;;;;;;37.85;5.78;;;14.30;99.90;;;;;;5113127;28;20016;-68
2022/06/09 01:20:08;;;;;;;33.60;6.60;;;14.20;99.90;;;;;;5111645;28;20038;-67
2022/06/09 01:22:34;;;;;;;38.95;7.25;;;14.30;99.90;;;;;;5113186;28;20034;-68
2022/06/09 01:25:14;;;;;;;35.72;7.03;;;14.30;99.90;;;;;;5113651;28;20371;-69
2022/06/09 01:28:15;;;;;;;42.35;6.80;;;14.30;99.90;;;;;;5113015;28;20036;-70
2022/06/09 01:30:54;;;;;;;40.60;6.45;;;14.10;99.90;;;;;;5110655;28;20036;-68
2022/06/09 01:33:30;;;;;;;41.72;7.20;;;14.30;99.90;;;;;;5113219;28;20032;-68
2022/06/09 01:36:16;;;;;;;38.58;6.32;;;14.40;99.90;;;;;;5111715;28;20039;-67
2022/06/09 01:38:47;;;;;;;28.45;6.10;;;14.30;99.90;;;;;;5113166;28;20039;-68
2022/06/09 01:41:14;;;;;;;37.03;6.93;;;14.20;99.90;;;;;;5112805;28;20061;-68
2022/06/09 01:43:41;;;;;;;39.85;6.97;;;14.20;99.90;;;;;;5098811;28;20100;-68
2022/06/09 01:46:14;;;;;;;35.83;6.68;;;14.20;99.90;;;;;;5109895;28;20058;-68
2022/06/09 01:48:41;;;;;;;36.78;7.55;;;14.20;99.90;;;;;;5110223;28;20039;-69
2022/06/09 01:51:11;;;;;;;45.15;6.80;;;13.90;99.90;;;;;;5113155;28;20020;-69
2022/06/09 01:53:51;;;;;;;41.05;7.82;;;13.80;99.90;;;;;;5112610;28;20046;-68
2022/06/09 01:57:03;;;;;;;38.00;6.97;;;13.70;99.90;;;;;;5112918;28;20024;-68
2022/06/09 01:59:41;;;;;;;39.92;8.32;;;13.80;99.90;;;;;;5086851;28;20085;-68
2022/06/09 02:02:12;;;;;;;41.13;7.32;;;13.90;99.90;;;;;;5112366;28;20023;-69
2022/06/09 02:04:45;;;;;;;37.22;7.35;;;14.10;99.90;;;;;;5107183;28;20089;-69
2022/06/09 02:07:14;;;;;;;33.75;6.57;;;14.20;99.90;;;;;;5112395;28;20047;-69
2022/06/09 02:09:40;;;;;;;50.63;7.75;;;14.10;99.90;;;;;;5112963;28;20114;-68
2022/06/09 02:12:12;;;;;;;36.35;8.25;;;14.00;99.90;;;;;;5112676;28;20361;-69
2022/06/09 02:14:39;;;;;;;;;;;14.10;99.90;;;;;;5114412;28;20035;-67
2022/06/09 02:17:08;;;;;;;51.05;8.27;;;14.00;99.90;;;;;;5116087;28;19926;-68
2022/06/09 02:19:37;;;;;;;44.22;8.85;;;14.00;99.90;;;;;;5116510;28;20373;-69
2022/06/09 02:22:08;;;;;;;45.50;8.90;;;14.20;99.90;;;;;;5116357;28;20375;-68
2022/06/09 02:24:34;;;;;;;43.90;7.68;;;14.30;99.90;;;;;;5116265;28;20027;-68
2022/06/09 02:27:01;;;;;;;38.13;8.25;;;14.10;99.90;;;;;;5116168;28;20039;-68
2022/06/09 02:29:27;;;;;;;38.05;7.25;;;13.90;99.90;;;;;;5116024;28;20024;-68
2022/06/09 02:31:53;;;;;;;33.67;7.78;;;13.80;99.90;;;;;;5115931;27;20053;-68
2022/06/09 02:34:19;;;;;;;28.10;7.28;;;13.80;99.90;;;;;;5114845;28;20059;-68
2022/06/09 02:36:45;;;;;;;42.10;7.97;;;13.70;99.90;;;;;;5115996;28;20416;-70
2022/06/09 02:39:11;;;;;;;47.95;7.97;;;13.80;99.90;;;;;;5116268;28;20032;-67
2022/06/09 02:41:37;;;;;;;42.17;8.18;;;13.80;99.90;;;;;;5113844;28;20020;-68
2022/06/09 02:44:04;;;;;;;37.25;7.57;;;13.80;99.90;;;;;;5103887;28;20019;-70
2022/06/09 02:46:31;;;;;;;31.88;7.35;;;13.90;99.90;;;;;;5109066;28;20055;-69
2022/06/09 02:48:57;;;;;;;49.33;8.02;;;14.00;99.90;;;;;;5080740;28;20082;-68
2022/06/09 02:51:35;;;;;;;33.45;8.18;;;13.90;99.90;;;;;;5115554;28;20019;-68
2022/06/09 02:54:04;;;;;;;44.35;9.05;;;13.90;99.90;;;;;;5111855;28;20028;-69
2022/06/09 02:56:30;;;;;;;47.45;9.15;;;14.10;99.90;;;;;;5099977;28;20369;-68
2022/06/09 02:58:57;;;;;;;44.55;9.30;;;14.10;99.90;;;;;;5109419;28;20027;-68
2022/06/09 03:01:26;;;;;;;43.55;8.70;;;13.90;99.90;;;;;;5101378;28;20027;-68
2022/06/09 03:03:53;;;;;;;44.35;7.72;;;14.00;99.90;;;;;;5107038;28;20024;-68
2022/06/09 03:06:18;;;;;;;45.08;9.85;;;14.00;99.90;;;;;;5114025;28;20122;-68
2022/06/09 03:08:44;;;;;;;49.78;9.02;;;14.00;99.90;;;;;;5104402;28;20115;-68
2022/06/09 03:11:10;;;;;;;38.95;9.13;;;14.00;99.90;;;;;;5095134;28;20035;-68
2022/06/09 03:13:38;;;;;;;38.72;8.80;;;13.90;99.90;;;;;;5103788;28;20072;-68
2022/06/09 03:16:05;;;;;;;42.67;8.65;;;14.00;99.90;;;;;;5115039;28;20564;-68
2022/06/09 03:18:32;;;;;;;40.28;8.73;;;14.00;99.90;;;;;;5115061;28;20059;-69
2022/06/09 03:20:58;;;;;;;43.30;8.75;;;14.00;99.90;;;;;;5115320;28;20032;-68
2022/06/09 03:23:24;;;;;;;47.42;9.40;;;14.00;99.90;;;;;;5115463;28;20060;-70
2022/06/09 03:25:49;;;;;;;40.00;8.80;;;14.10;99.90;;;;;;5104264;28;20487;-70
2022/06/09 03:28:15;;;;;;;41.55;8.73;;;13.90;99.90;;;;;;5094504;28;20534;-70
2022/06/09 03:30:41;;;;;;;37.08;9.70;;;13.90;99.90;;;;;;5103523;28;20020;-68
2022/06/09 03:33:07;;;;;;;52.42;10.07;;;14.00;99.90;;;;;;5114787;28;20100;-68
2022/06/09 03:35:34;;;;;;;49.28;9.88;;;13.80;99.90;;;;;;5115658;28;20023;-68
2022/06/09 03:37:59;;;;;;;48.38;8.82;;;13.90;99.90;;;;;;5114563;28;20476;-68
2022/06/09 03:40:28;;;;;;;40.75;9.65;;;13.90;99.90;;;;;;5114933;28;20028;-69
2022/06/09 03:42:54;;;;;;;34.10;9.15;;;13.70;99.90;;;;;;5114698;28;20031;-68
2022/06/09 03:45:21;;;;;;;46.72;8.20;;;13.80;99.90;;;;;;5114609;28;20028;-67
2022/06/09 03:47:48;;;;;;;42.10;8.20;;;13.90;99.90;;;;;;5107031;28;20061;-68
2022/06/09 03:50:20;;;;;;;41.22;8.73;;;13.90;99.90;;;;;;5114527;28;20028;-68
2022/06/09 03:52:46;;;;;;;43.80;9.02;;;13.70;99.90;;;;;;5114629;28;20031;-68
2022/06/09 03:55:12;;;;;;;45.20;9.48;;;13.70;99.90;;;;;;5114461;28;20022;-68
2022/06/09 03:57:38;;;;;;;37.95;8.15;;;14.00;99.90;;;;;;5114240;28;20028;-69
2022/06/09 04:00:06;;;;;;;37.10;8.90;;;14.00;99.90;;;;;;5102308;28;20028;-69
2022/06/09 04:02:32;;;;;;;50.33;8.57;;;13.90;99.90;;;;;;5098008;28;20050;-68
2022/06/09 04:04:59;;;;;;;39.85;9.48;;;13.90;99.90;;;;;;5106795;28;20023;-68
2022/06/09 04:07:24;;;;;;;40.50;8.40;;;13.90;99.90;;;;;;5113888;28;20047;-67
2022/06/09 04:09:50;;;;;;;38.33;8.43;;;13.90;99.90;;;;;;5114209;28;20015;-68
2022/06/09 04:12:16;;;;;;;44.38;8.82;;;13.60;99.90;;;;;;5114178;28;20123;-70
2022/06/09 04:14:42;;;;;;;32.45;8.02;;;13.60;99.90;;;;;;5113871;28;20484;-68
2022/06/09 04:17:11;;;;;;;32.95;9.10;;;13.50;99.90;;;;;;5114091;28;20404;-68
2022/06/09 04:19:37;;;;;;;50.67;9.27;;;13.40;99.90;;;;;;5113807;28;20467;-69
2022/06/09 04:22:04;;;;;;;38.55;8.52;;;13.50;99.90;;;;;;5113936;28;20036;-68
2022/06/09 04:24:30;;;;;;;42.50;8.23;;;13.50;99.90;;;;;;5113895;28;20434;-68
2022/06/09 04:26:57;;;;;;;31.95;8.07;;;13.60;99.90;;;;;;5113661;28;20043;-68
2022/06/09 04:29:22;;;;;;;44.83;8.10;;;13.70;99.90;;;;;;5113787;28;20024;-68
2022/06/09 04:31:48;;;;;;;42.30;7.95;;;13.90;99.90;;;;;;5113869;28;20027;-67
2022/06/09 04:34:14;;;;;;;40.10;7.80;;;13.90;99.90;;;;;;5113690;28;20032;-69
2022/06/09 04:36:41;;;;;;;43.63;7.95;;;14.00;99.90;;;;;;5113400;28;20047;-68
2022/06/09 04:39:07;;;;;;;36.00;8.00;;;14.00;99.90;;;;;;5113401;28;20111;-68
2022/06/09 04:41:34;;;;;;;36.20;7.63;;;14.10;99.90;;;;;;5113753;28;20039;-69
2022/06/09 04:43:59;;;;;;;33.88;7.80;;;14.10;99.90;;;;;;5113522;28;20058;-68
2022/06/09 04:46:26;;;;;;;36.63;8.55;;;14.00;99.90;;;;;;5109127;28;20380;-69
2022/06/09 04:48:52;;;;;;;38.58;8.00;;;13.90;99.90;;;;;;5113320;28;20028;-68
2022/06/09 04:51:19;;;;;;;29.45;6.47;;;14.10;99.90;;;;;;5112293;28;20023;-68
2022/06/09 04:53:46;;;;;;;40.03;8.32;;;14.10;99.90;;;;;;5113301;28;20072;-69
2022/06/09 04:56:14;;;;;;;28.80;6.47;;;14.20;99.90;;;;;;5113365;28;20459;-68
2022/06/09 04:58:41;;;;;;;30.27;7.30;;;14.20;99.90;;;;;;5112850;28;20089;-69
2022/06/09 05:01:15;;;;;;;31.98;7.13;;;14.20;99.90;;;;;;5099587;28;20028;-68
2022/06/09 05:03:40;;;;;;;33.05;7.10;;;14.40;99.90;;;;;;5106559;28;20119;-69
2022/06/09 05:06:06;;;;;;;30.95;7.18;;;14.40;99.90;;;;;;5112498;28;20051;-68
2022/06/09 05:08:32;;;;;;;24.55;6.88;;;14.20;99.90;;;;;;5113218;28;20401;-68
2022/06/09 05:10:58;;;;;;;34.60;6.43;;;14.20;99.90;;;;;;5112900;28;20018;-68
2022/06/09 05:13:23;;;;;;;31.63;8.23;;;14.30;99.90;;;;;;5113311;28;20560;-68
2022/06/09 05:15:54;;;;;;;32.58;6.13;;;14.20;99.90;;;;;;5113041;28;20019;-68
2022/06/09 05:18:23;;;;;;;27.13;6.90;;;14.40;99.90;;;;;;5113351;28;20027;-69
2022/06/09 05:20:50;;;;;;;35.75;7.10;;;14.60;99.90;;;;;;5113397;28;20051;-69
2022/06/09 05:23:18;;;;;;;41.83;6.75;;;14.70;99.90;;;;;;5113218;28;20038;-68
2022/06/09 05:25:45;;;;;;;38.78;6.88;;;14.80;99.90;;;;;;5112779;28;20035;-68
2022/06/09 05:28:11;;;;;;;42.05;6.57;;;15.00;99.90;;;;;;5112980;28;20433;-67
2022/06/09 05:30:37;;;;;;;32.08;6.60;;;14.90;99.90;;;;;;5113067;28;20024;-69
2022/06/09 05:33:03;;;;;;;23.40;5.53;;;15.10;99.90;;;;;;5112214;28;20031;-68
2022/06/09 05:35:29;;;;;;;32.03;5.82;;;15.00;99.90;;;;;;5112984;28;20024;-68
2022/06/09 05:46:15;;;;;;;27.33;6.80;;;15.20;99.90;;;;;;5109574;28;20052;-68
2022/06/09 05:48:44;;;;;;;30.70;6.80;;;15.20;99.90;;;;;;5112415;28;20086;-69
2022/06/09 05:51:12;;;;;;;24.75;6.72;;;15.10;99.90;;;;;;5116683;28;20035;-69
2022/06/09 05:53:38;;;;;;;27.48;7.03;;;15.00;99.90;;;;;;5117059;28;20500;-68
2022/06/09 05:56:06;;;;;;;34.15;7.32;;;15.00;99.90;;;;;;5116517;28;20019;-68
2022/06/09 05:58:33;;;;;;;22.02;6.45;;;15.10;99.90;;;;;;5116779;28;20430;-68
2022/06/09 06:01:01;;;;;;;26.02;6.97;;;15.20;99.90;;;;;;5101926;28;20055;-67
2022/06/09 06:03:27;;;;;;;29.45;6.40;;;15.10;99.90;;;;;;5111987;28;20028;-68
2022/06/09 06:08:38;;;;;;;22.23;6.03;;;15.30;99.90;;;;;;5115905;28;20104;-68
2022/06/09 06:11:04;;;;;;;23.38;5.72;;;15.50;99.90;;;;;;5115582;28;20182;-70
2022/06/09 06:13:30;;;;;;;24.67;5.38;;;15.70;99.90;;;;;;5116535;28;20030;-68
2022/06/09 06:15:56;;;;;;;16.85;5.20;;;15.70;99.90;;;;;;5116276;27;20028;-69
2022/06/09 06:18:23;;;;;;;23.67;5.22;;;15.90;99.90;;;;;;5116390;28;20357;-67
2022/06/09 06:20:49;;;;;;;24.55;4.53;;;16.00;99.90;;;;;;5116031;28;20031;-69
2022/06/09 06:23:15;;;;;;;20.55;4.72;;;16.10;99.90;;;;;;5115983;27;20058;-68
2022/06/09 06:25:41;;;;;;;20.92;5.07;;;16.10;99.90;;;;;;5116019;28;20019;-68
2022/06/09 06:28:06;;;;;;;15.40;3.75;;;16.10;99.90;;;;;;5099889;28;20487;-68
2022/06/09 06:30:33;;;;;;;22.10;4.18;;;16.20;99.90;;;;;;5098600;28;20412;-68
2022/06/09 06:32:58;;;;;;;16.95;3.80;;;16.40;99.90;;;;;;5085063;28;20040;-68
2022/06/09 06:35:24;;;;;;;23.38;4.75;;;16.50;99.90;;;;;;5105104;28;20034;-67
2022/06/09 06:37:50;;;;;;;13.15;3.58;;;16.50;99.90;;;;;;5104072;28;20383;-68
2022/06/09 06:40:16;;;;;;;16.85;3.53;;;16.50;99.90;;;;;;5095197;28;20491;-68
2022/06/09 06:42:42;;;;;;;18.83;4.47;;;16.50;99.90;;;;;;5097814;28;20028;-69
2022/06/09 06:45:12;;;;;;;14.00;3.40;;;16.60;99.90;;;;;;5095377;28;20099;-69
2022/06/09 06:47:39;;;;;;;20.77;4.25;;;16.80;99.90;;;;;;5101350;28;20023;-68
2022/06/09 06:50:06;;;;;;;23.10;3.85;;;16.80;99.90;;;;;;5100706;28;20046;-69
2022/06/09 06:52:32;;;;;;;15.82;4.75;;;16.40;99.90;;;;;;5094772;28;20023;-69
2022/06/09 06:54:58;;;;;;;14.60;3.05;;;16.30;99.90;;;;;;5096999;28;20090;-68
2022/06/09 06:57:25;;;;;;;16.33;3.42;;;16.50;99.90;;;;;;5097700;28;20023;-68
2022/06/09 06:59:51;;;;;;;16.30;3.90;;;16.70;99.90;;;;;;5104686;28;20037;-68
2022/06/09 07:02:18;;;;;;;12.52;3.42;;;17.10;99.90;;;;;;5093040;28;20024;-68
2022/06/09 07:04:44;;;;;;;20.02;4.00;;;17.10;99.90;;;;;;5097941;28;20057;-68
2022/06/09 07:07:11;;;;;;;17.30;4.63;;;17.20;99.90;;;;;;5093659;28;20119;-68
2022/06/09 07:09:37;;;;;;;17.88;3.63;;;16.90;99.90;;;;;;5109557;28;20051;-68
2022/06/09 07:12:04;;;;;;;23.23;4.10;;;16.90;99.90;;;;;;5100715;28;20069;-68
2022/06/09 07:14:31;;;;;;;16.75;3.60;;;17.10;99.90;;;;;;5100454;28;20035;-67
2022/06/09 07:16:57;;;;;;;12.45;3.53;;;17.00;99.90;;;;;;5096846;28;20069;-69
2022/06/09 07:19:23;;;;;;;18.02;3.88;;;17.20;99.90;;;;;;5095057;28;20082;-68
2022/06/09 07:21:48;;;;;;;19.05;3.83;;;17.60;99.90;;;;;;5109378;28;20031;-69
2022/06/09 07:24:14;;;;;;;14.82;3.28;;;17.80;99.90;;;;;;5106170;28;20023;-68
2022/06/09 07:26:40;;;;;;;16.33;4.00;;;18.00;99.90;;;;;;5096714;28;20028;-68
2022/06/09 07:29:06;;;;;;;13.23;3.17;;;17.60;99.90;;;;;;5096215;28;20107;-70
2022/06/09 07:31:32;;;;;;;11.63;3.33;;;17.40;99.90;;;;;;5096429;28;20077;-68
2022/06/09 07:33:58;;;;;;;5.57;2.17;;;17.70;99.90;;;;;;5108942;28;20031;-67
2022/06/09 07:36:25;;;;;;;9.82;1.77;;;17.60;99.90;;;;;;5096374;28;20496;-67
2022/06/09 07:38:52;;;;;;;9.98;1.73;;;17.50;99.90;;;;;;5092466;28;20020;-68
2022/06/09 07:41:20;;;;;;;5.25;1.50;;;17.60;99.90;;;;;;5086355;28;20035;-68
2022/06/09 07:43:47;;;;;;;11.65;1.90;;;17.50;99.90;;;;;;5094072;28;20043;-68
2022/06/09 07:46:14;;;;;;;6.78;1.63;;;17.30;99.90;;;;;;5094108;28;20531;-69
2022/06/09 07:48:41;;;;;;;13.75;2.22;;;17.10;99.90;;;;;;5093959;28;20034;-70
2022/06/09 07:51:07;;;;;;;12.93;1.88;;;16.90;99.90;;;;;;5092774;28;20425;-68
2022/06/09 07:53:34;;;;;;;7.72;1.80;;;16.90;99.90;;;;;;5093963;28;20077;-68
2022/06/09 07:56:00;;;;;;;6.47;2.10;;;17.10;99.90;;;;;;5093958;28;20020;-68
2022/06/09 07:58:26;;;;;;;11.57;2.28;;;17.20;99.90;;;;;;5106113;28;20617;-68
2022/06/09 08:00:52;;;;;;;13.13;2.55;;;17.00;99.90;;;;;;5099812;28;20059;-68
2022/06/09 08:03:21;;;;;;;9.73;1.92;;;16.90;99.90;;;;;;5110521;27;20097;-68
2022/06/09 08:05:48;;;;;;;11.20;2.45;;;16.90;99.90;;;;;;5110597;28;20394;-68
2022/06/09 08:08:14;;;;;;;11.90;2.53;;;17.00;99.90;;;;;;5113799;28;20044;-68
2022/06/09 08:10:41;;;;;;;11.85;2.33;;;17.00;99.90;;;;;;5103934;28;20081;-68
2022/06/09 08:13:07;;;;;;;14.32;2.53;;;17.00;99.90;;;;;;5113551;28;20134;-68
2022/06/09 08:15:34;;;;;;;13.88;3.10;;;17.00;99.90;;;;;;5114260;28;20031;-68
2022/06/09 08:18:00;;;;;;;18.33;3.47;;;17.30;99.90;;;;;;5113562;28;20486;-71
2022/06/09 08:20:29;;;;;;;18.48;2.97;;;17.80;99.90;;;;;;5113764;28;20034;-69
2022/06/09 08:23:26;;;;;;;14.52;3.17;;;18.20;99.90;;;;;;5113918;28;20020;-68
2022/06/09 08:25:54;;;;;;;6.95;2.40;;;18.40;99.90;;;;;;5105188;28;20040;-69
2022/06/09 08:28:21;;;;;;;14.82;2.63;;;18.50;99.90;;;;;;5113384;28;20039;-71
2022/06/09 08:30:49;;;;;;;12.60;4.10;;;18.50;99.90;;;;;;5113701;28;20098;-69
2022/06/09 08:33:15;;;;;;;17.02;4.75;;;18.10;99.90;;;;;;5113669;28;20383;-68
2022/06/09 08:35:41;;;;;;;18.55;5.43;;;17.80;99.90;;;;;;5113598;28;20058;-69
2022/06/09 08:38:07;;;;;;;14.07;4.03;;;17.40;99.90;;;;;;5113317;28;20430;-69
2022/06/09 08:41:08;;;;;;;18.65;4.63;;;17.30;99.90;;;;;;5113717;28;20027;-70
2022/06/09 08:43:58;;;;;;;22.27;4.40;;;16.90;99.90;;;;;;5105989;28;20043;-70
2022/06/09 08:46:46;;;;;;;19.65;4.82;;;16.70;99.90;;;;;;5109186;28;20115;-69
2022/06/09 08:49:50;;;;;;;15.60;4.07;;;17.00;99.90;;;;;;5105762;28;20456;-70
2022/06/09 08:52:33;;;;;;;14.77;3.20;;;17.10;99.90;;;;;;5079917;28;20074;-70
2022/06/09 08:55:12;;;;;;;14.40;3.10;;;17.30;99.90;;;;;;5113446;28;20032;-69
2022/06/09 08:57:38;;;;;;;14.45;2.92;;;17.30;99.90;;;;;;5112745;28;20051;-68
2022/06/09 09:00:05;;;;;;;11.38;2.95;;;17.20;99.90;;;;;;5112246;28;20051;-70
2022/06/09 09:02:42;;;;;;;14.25;3.08;;;17.40;99.90;;;;;;5113066;28;20023;-69
2022/06/09 09:05:18;;;;;;;8.70;2.50;;;17.60;99.90;;;;;;5105721;28;20047;-69
2022/06/09 09:07:47;;;;;;;15.23;4.07;;;17.70;99.90;;;;;;5112970;28;20027;-69
2022/06/09 09:10:39;;;;;;;8.02;2.88;;;17.90;99.90;;;;;;5112097;28;20016;-68
2022/06/09 09:13:04;;;;;;;14.73;3.22;;;17.70;99.90;;;;;;5086289;28;20403;-69
2022/06/09 09:15:32;;;;;;;35.25;5.20;;;17.80;99.90;;;;;;5113308;28;20027;-69
2022/06/09 09:18:28;;;;;;;9.25;2.63;;;18.00;99.90;;;;;;5109988;28;20016;-69
2022/06/09 09:21:12;;;;;;;17.17;2.72;;;17.60;99.90;;;;;;5107850;28;20066;-69
2022/06/09 09:23:54;;;;;;;12.40;3.33;;;17.40;99.90;;;;;;5114774;28;20267;-68
2022/06/09 09:26:44;;;;;;;;;;;17.60;99.90;;;;;;5117792;28;20055;-69
2022/06/09 09:29:19;;;;;;;13.10;4.10;;;17.70;99.90;;;;;;5117305;28;19972;-69
2022/06/09 09:31:58;;;;;;;15.10;3.42;;;17.90;99.90;;;;;;5117052;28;20031;-70
2022/06/09 09:34:30;;;;;;;15.82;4.50;;;17.80;99.90;;;;;;5117397;28;20024;-69
2022/06/09 09:37:02;;;;;;;13.88;3.70;;;18.10;99.90;;;;;;5117244;27;20023;-69
2022/06/09 09:39:41;;;;;;;12.40;3.97;;;18.20;99.90;;;;;;5117379;28;20071;-69
2022/06/09 09:42:12;;;;;;;13.00;3.05;;;18.00;99.90;;;;;;5092179;28;20035;-70
2022/06/09 09:44:37;;;;;;;11.25;2.88;;;18.20;99.90;;;;;;5117058;28;20031;-69
2022/06/09 09:47:04;;;;;;;9.50;3.03;;;18.50;99.90;;;;;;5112138;28;20036;-70
2022/06/09 09:49:32;;;;;;;16.60;3.15;;;18.50;99.90;;;;;;5117028;28;20032;-69
2022/06/09 09:51:59;;;;;;;20.63;3.90;;;18.80;99.90;;;;;;5116775;28;20015;-69
2022/06/09 09:54:31;;;;;;;7.47;2.33;;;19.40;99.90;;;;;;5115595;28;20101;-70
2022/06/09 09:57:17;;;;;;;10.38;2.38;;;19.40;99.90;;;;;;5116577;28;20023;-70
2022/06/09 10:00:01;;;;;;;15.13;2.58;;;19.50;99.90;;;;;;5094082;28;20032;-69
2022/06/09 10:08:42;;;;;;;10.18;1.67;;;19.20;99.90;;;;;;5116328;28;20047;-68
2022/06/09 10:14:32;;;;;;;8.35;2.05;;;19.30;99.90;;;;;;5116453;28;20059;-68
2022/06/09 10:17:00;;;;;;;8.95;1.98;;;19.40;99.90;;;;;;5116065;28;20028;-69
2022/06/09 10:19:30;;;;;;;7.40;1.63;;;19.70;99.90;;;;;;5116334;28;20561;-68
2022/06/09 10:21:59;;;;;;;9.43;1.70;;;20.10;99.90;;;;;;5116231;28;20063;-68
2022/06/09 10:24:54;;;;;;;10.57;1.52;;;19.90;99.90;;;;;;5116343;28;20095;-68
2022/06/09 10:27:26;;;;;;;12.77;2.83;;;20.60;99.90;;;;;;5115964;28;20035;-68
2022/06/09 10:29:59;;;;;;;9.13;1.90;;;20.50;99.90;;;;;;5114769;28;20116;-70
2022/06/09 10:32:38;;;;;;;9.52;2.30;;;20.80;99.90;;;;;;5114752;28;20024;-68
2022/06/09 10:35:23;;;;;;;9.20;1.77;;;20.50;99.90;;;;;;5115358;28;20023;-68
2022/06/09 10:38:02;;;;;;;10.77;2.67;;;19.70;99.90;;;;;;5115931;28;20454;-68
2022/06/09 10:40:47;;;;;;;6.40;2.38;;;19.60;99.90;;;;;;5116151;28;20480;-68
2022/06/09 10:43:25;;;;;;;11.85;2.40;;;19.40;99.90;;;;;;5107399;28;20489;-68
2022/06/09 10:46:00;;;;;;;9.32;2.28;;;19.50;99.90;;;;;;5114625;28;20032;-68
2022/06/09 10:55:14;;;;;;;12.75;2.38;;;19.30;99.90;;;;;;5115458;28;20106;-71
2022/06/09 10:57:54;;;;;;;14.82;2.83;;;19.60;99.90;;;;;;5115174;28;20043;-68
2022/06/09 11:00:30;;;;;;;14.75;2.60;;;20.10;99.90;;;;;;5101136;28;20032;-68
2022/06/09 11:03:00;;;;;;;10.63;2.70;;;20.40;99.90;;;;;;5089466;28;20019;-68
2022/06/09 11:05:43;;;;;;;8.65;2.53;;;21.10;99.90;;;;;;5109164;28;20061;-68
2022/06/09 11:08:38;;;;;;;15.75;2.20;;;21.20;99.90;;;;;;5090928;28;20054;-68
2022/06/09 11:11:19;;;;;;;8.02;1.83;;;21.30;99.90;;;;;;5099688;28;20116;-68
2022/06/09 11:14:05;;;;;;;7.40;2.05;;;20.70;99.90;;;;;;5114824;28;20034;-68
2022/06/09 11:17:10;;;;;;;13.10;2.92;;;21.10;99.90;;;;;;5087444;28;20035;-69
2022/06/09 11:19:54;;;;;;;11.52;2.65;;;21.40;99.90;;;;;;5107108;28;20065;-69
2022/06/09 11:22:45;;;;;;;10.32;2.10;;;21.40;99.90;;;;;;5092900;28;20499;-73
2022/06/09 11:25:41;;;;;;;13.40;2.67;;;21.10;99.90;;;;;;5094788;28;20027;-69
2022/06/09 11:28:27;;;;;;;11.00;2.63;;;21.50;99.90;;;;;;5092438;28;20044;-69
2022/06/09 11:31:11;;;;;;;9.50;2.45;;;21.80;99.90;;;;;;5094885;28;20020;-70
2022/06/09 11:33:45;;;;;;;19.13;2.10;;;22.50;99.90;;;;;;5094337;28;20036;-70
2022/06/09 11:36:14;;;;;;;11.35;2.70;;;22.30;99.50;;;;;;5094329;28;20118;-69
2022/06/09 11:38:53;;;;;;;12.35;2.20;;;21.80;99.90;;;;;;5094249;28;20089;-70
2022/06/09 11:41:30;;;;;;;13.38;2.53;;;21.70;99.90;;;;;;5094309;28;20119;-68
2022/06/09 11:44:19;;;;;;;14.30;3.10;;;21.70;99.90;;;;;;5094117;28;20019;-68
2022/06/09 11:46:46;;;;;;;13.18;2.50;;;21.90;99.90;;;;;;5091063;28;20043;-72
2022/06/09 11:49:43;;;;;;;16.75;2.45;;;21.60;99.90;;;;;;5094021;28;20041;-70
2022/06/09 11:52:19;;;;;;;7.60;2.40;;;21.80;99.90;;;;;;5093778;28;20032;-70
2022/06/09 11:54:54;;;;;;;9.57;2.70;;;21.40;99.90;;;;;;5094090;28;20036;-68
2022/06/09 11:57:42;;;;;;;14.82;2.67;;;20.70;99.90;;;;;;5096916;28;20129;-70
2022/06/09 12:00:26;;;;;;;15.18;2.92;;;20.70;99.90;;;;;;5102123;28;20028;-69
2022/06/09 12:03:01;;;;;;;10.20;2.58;;;20.60;99.90;;;;;;5086907;28;20031;-70
2022/06/09 12:05:50;;;;;;;17.60;2.35;;;20.60;99.90;;;;;;5108618;28;20037;-69
2022/06/09 12:08:38;;;;;;;13.00;2.88;;;20.60;99.90;;;;;;5114099;28;20058;-70
2022/06/09 12:11:14;;;;;;;15.88;3.20;;;20.60;99.90;;;;;;5114013;27;20480;-68
2022/06/09 12:14:30;;;;;;;20.05;3.15;;;20.90;99.90;;;;;;5114030;28;20468;-70
2022/06/09 12:17:08;;;;;;;12.02;3.15;;;21.00;99.90;;;;;;5094858;28;20035;-69
2022/06/09 12:19:57;;;;;;;7.43;2.17;;;20.80;99.90;;;;;;5112742;28;20030;-70
2022/06/09 12:22:29;;;;;;;13.32;2.80;;;20.40;99.90;;;;;;5114275;28;20024;-69
2022/06/09 12:25:23;;;;;;;22.50;3.50;;;20.20;99.90;;;;;;5081070;28;20028;-70
2022/06/09 12:27:52;;;;;;;18.33;2.88;;;20.30;99.90;;;;;;5086548;28;20089;-69
2022/06/09 12:30:26;;;;;;;16.75;3.47;;;20.50;99.90;;;;;;5093533;28;20480;-70
2022/06/09 12:33:11;;;;;;;18.02;2.97;;;20.30;99.90;;;;;;5093453;28;20031;-69
2022/06/09 12:36:20;;;;;;;18.92;3.45;;;20.20;99.90;;;;;;5093323;28;20040;-69
2022/06/09 12:38:56;;;;;;;20.95;3.42;;;20.30;99.90;;;;;;5079153;28;20076;-77
2022/06/09 12:41:25;;;;;;;9.88;2.63;;;20.40;99.90;;;;;;5092887;28;20092;-69
2022/06/09 12:44:07;;;;;;;21.92;3.53;;;20.50;99.90;;;;;;5092894;28;20358;-69
2022/06/09 12:46:33;;;;;;;14.60;2.95;;;20.30;99.90;;;;;;5092928;28;20020;-69
2022/06/09 12:48:59;;;;;;;21.27;3.05;;;20.40;99.90;;;;;;5092999;28;20366;-69
2022/06/09 12:51:33;;;;;;;18.25;3.33;;;20.50;99.90;;;;;;5092831;28;20019;-69
2022/06/09 12:54:04;;;;;;;16.70;2.90;;;20.40;99.90;;;;;;5093053;28;20031;-68
2022/06/09 12:56:39;;;;;;;12.35;2.65;;;20.40;99.90;;;;;;5092749;28;20134;-69
2022/06/09 12:59:22;;;;;;;13.77;2.45;;;20.60;99.90;;;;;;5110380;28;20099;-69
2022/06/09 13:02:11;;;;;;;14.93;2.53;;;20.80;99.90;;;;;;5113361;28;20023;-69
2022/06/09 13:05:02;;;;;;;16.35;2.65;;;21.10;99.90;;;;;;5099672;28;20093;-70
2022/06/09 13:07:33;;;;;;;12.70;2.53;;;21.80;99.90;;;;;;5112279;28;20048;-68
2022/06/09 13:10:03;;;;;;;7.85;2.10;;;21.90;99.90;;;;;;5113006;28;20047;-69
2022/06/09 13:15:45;;;;;;;9.32;1.70;;;22.40;93.50;;;;;;5112952;28;20129;-69
2022/06/09 13:18:11;;;;;;;5.82;1.67;;;22.80;93.90;;;;;;5084689;28;20031;-69
2022/06/09 13:20:40;;;;;;;8.55;1.88;;;23.30;93.70;;;;;;5113262;28;20582;-69
2022/06/09 13:23:10;;;;;;;9.15;1.98;;;23.30;93.30;;;;;;5113191;28;20024;-68
2022/06/09 13:25:37;;;;;;;12.50;2.58;;;23.70;92.30;;;;;;5112605;28;20503;-68
2022/06/09 13:28:05;;;;;;;11.95;2.55;;;24.20;93.70;;;;;;5113231;28;20392;-69
2022/06/09 13:31:01;;;;;;;9.60;2.40;;;24.60;92.20;;;;;;5113127;28;20034;-68